Time;durP1;ratioP1;P1;durP2;ratioP2;P2;SDS_P1;SDS_P2;PMS_P1;PMS_P2;Temp;Humidity;BMP_temperature;BMP_pressure;BME280_temperature;BME280_humidity;BME280_pressure;Samples;Min_cycle;Max_cycle;Signal;HPM_P1;HPM_P2
2023/06/20 00:02:17;;;;;;;4.75;3.90;;;19.60;99.90;;;;;;7345465;32;20104;-56
2023/06/20 00:06:21;;;;;;;5.55;4.07;;;19.70;99.90;;;;;;7351460;32;20187;-55
2023/06/20 00:10:23;;;;;;;6.43;3.72;;;19.80;99.90;;;;;;7348108;32;20748;-56
2023/06/20 00:14:25;;;;;;;8.43;4.37;;;19.90;99.90;;;;;;7348677;32;20106;-55
2023/06/20 00:18:29;;;;;;;6.40;4.50;;;20.00;99.90;;;;;;7351274;32;20203;-55
2023/06/20 00:22:34;;;;;;;5.95;4.00;;;20.00;99.90;;;;;;7341910;32;20340;-55
2023/06/20 00:26:39;;;;;;;6.55;3.78;;;20.00;99.90;;;;;;7347905;32;20122;-55
2023/06/20 00:30:41;;;;;;;6.68;4.12;;;20.10;99.90;;;;;;7350892;32;20237;-57
2023/06/20 00:34:44;;;;;;;5.95;4.25;;;20.10;99.90;;;;;;7351914;32;20126;-56
2023/06/20 00:38:48;;;;;;;4.75;4.22;;;20.10;99.90;;;;;;7350442;32;20581;-57
2023/06/20 00:42:50;;;;;;;6.22;4.20;;;20.20;99.90;;;;;;7353676;32;20348;-55
2023/06/20 00:46:52;;;;;;;5.30;4.07;;;20.40;99.90;;;;;;7343188;32;20757;-55
2023/06/20 00:50:54;;;;;;;5.82;3.65;;;20.40;99.90;;;;;;7345851;32;20130;-57
2023/06/20 00:54:56;;;;;;;9.35;4.10;;;20.50;99.90;;;;;;7345745;32;20495;-56
2023/06/20 00:58:58;;;;;;;5.22;4.00;;;20.50;99.90;;;;;;7348630;32;20310;-54
2023/06/20 01:03:13;;;;;;;8.73;3.78;;;20.50;99.90;;;;;;7345047;32;20847;-57
2023/06/20 01:07:39;;;;;;;7.10;4.07;;;20.50;99.90;;;;;;7344180;32;20228;-57
2023/06/20 01:12:04;;;;;;;9.98;4.10;;;20.40;99.90;;;;;;7346416;32;20115;-56
2023/06/20 01:16:21;;;;;;;5.28;4.07;;;20.30;99.90;;;;;;7349643;32;20445;-57
2023/06/20 01:20:33;;;;;;;7.53;3.70;;;20.30;99.90;;;;;;7348704;32;21444;-56
2023/06/20 01:24:58;;;;;;;6.28;4.20;;;20.20;99.90;;;;;;7346488;32;20618;-55
2023/06/20 01:29:13;;;;;;;9.55;4.15;;;20.10;99.90;;;;;;7339964;32;20165;-56
2023/06/20 01:33:22;;;;;;;7.57;4.35;;;20.00;99.90;;;;;;7346675;32;20621;-56
2023/06/20 01:37:27;;;;;;;10.63;4.35;;;19.90;99.90;;;;;;7348853;32;20318;-55
2023/06/20 01:41:31;;;;;;;9.07;4.85;;;19.80;99.90;;;;;;7348040;32;20155;-55
2023/06/20 01:45:37;;;;;;;6.40;4.80;;;19.70;99.90;;;;;;7349628;32;20123;-55
2023/06/20 01:49:41;;;;;;;7.47;4.70;;;19.60;99.90;;;;;;7345456;32;20107;-55
2023/06/20 01:53:44;;;;;;;5.10;4.32;;;19.50;99.90;;;;;;7345397;32;20755;-56
2023/06/20 01:57:46;;;;;;;8.18;4.18;;;19.50;99.90;;;;;;7350814;32;20111;-55
2023/06/20 02:01:49;;;;;;;7.00;4.50;;;19.40;99.90;;;;;;7344315;32;20201;-55
2023/06/20 02:05:55;;;;;;;8.48;4.82;;;19.20;99.90;;;;;;7346676;32;21585;-55
2023/06/20 02:09:57;;;;;;;8.90;4.62;;;19.20;99.90;;;;;;7343443;32;20182;-56
2023/06/20 02:13:59;;;;;;;6.70;4.68;;;19.10;99.90;;;;;;7350467;32;20482;-55
2023/06/20 02:18:02;;;;;;;5.82;4.97;;;19.00;99.90;;;;;;7349179;32;20099;-55
2023/06/20 02:22:05;;;;;;;6.10;4.90;;;19.00;99.90;;;;;;7346601;32;20305;-56
2023/06/20 02:26:14;;;;;;;7.53;5.00;;;19.00;99.90;;;;;;7345508;32;20258;-55
2023/06/20 02:30:17;;;;;;;5.45;4.70;;;19.00;99.90;;;;;;7347385;32;20360;-55
2023/06/20 02:34:21;;;;;;;6.15;4.53;;;19.00;99.90;;;;;;7348135;32;20118;-55
2023/06/20 02:38:22;;;;;;;8.40;5.12;;;19.00;99.90;;;;;;7342486;32;20757;-56
2023/06/20 02:42:24;;;;;;;6.82;4.78;;;19.10;99.90;;;;;;7348948;32;20131;-56
2023/06/20 02:46:30;;;;;;;7.37;4.80;;;19.10;99.90;;;;;;7336780;32;20360;-56
2023/06/20 02:50:41;;;;;;;6.78;4.62;;;19.10;99.90;;;;;;7343919;32;20198;-55
2023/06/20 02:55:14;;;;;;;7.45;4.60;;;19.20;99.90;;;;;;7345625;32;20151;-56
2023/06/20 02:59:16;;;;;;;6.75;4.45;;;19.30;99.90;;;;;;7336987;32;20115;-55
2023/06/20 03:03:23;;;;;;;7.12;4.47;;;19.50;99.90;;;;;;7341631;32;20179;-56
2023/06/20 03:07:26;;;;;;;5.57;4.53;;;19.50;99.90;;;;;;7343782;32;20171;-56
2023/06/20 03:11:29;;;;;;;8.55;5.10;;;19.50;99.90;;;;;;7342786;32;20111;-55
2023/06/20 03:15:31;;;;;;;9.88;4.53;;;19.60;99.90;;;;;;7348314;32;20099;-55
2023/06/20 03:19:33;;;;;;;7.82;4.82;;;19.50;99.90;;;;;;7343300;32;20865;-55
2023/06/20 03:23:35;;;;;;;5.85;4.53;;;19.60;99.90;;;;;;7343158;32;20111;-56
2023/06/20 03:27:37;;;;;;;7.75;4.53;;;19.60;99.90;;;;;;7341175;32;20206;-55
2023/06/20 03:31:38;;;;;;;5.90;4.47;;;19.60;99.90;;;;;;7344493;32;20124;-56
2023/06/20 03:35:40;;;;;;;5.82;4.80;;;19.70;99.90;;;;;;7346512;32;20107;-57
2023/06/20 03:39:42;;;;;;;6.25;4.43;;;19.70;99.90;;;;;;7344961;32;20160;-55
2023/06/20 03:43:44;;;;;;;6.00;4.70;;;19.60;99.90;;;;;;7347968;32;20107;-56
2023/06/20 03:47:45;;;;;;;7.90;5.28;;;19.60;99.90;;;;;;7343202;32;20181;-56
2023/06/20 03:51:48;;;;;;;8.43;5.22;;;19.60;99.90;;;;;;7343021;32;20254;-55
2023/06/20 03:55:50;;;;;;;5.85;4.95;;;19.50;99.90;;;;;;7339723;32;20116;-55
2023/06/20 03:59:51;;;;;;;6.75;5.20;;;19.60;99.90;;;;;;7344279;32;20842;-56
2023/06/20 04:03:54;;;;;;;6.85;5.30;;;19.50;99.90;;;;;;7345490;32;20253;-56
2023/06/20 04:07:56;;;;;;;8.82;5.20;;;19.50;99.90;;;;;;7344174;32;20223;-56
2023/06/20 04:11:57;;;;;;;9.25;5.18;;;19.50;99.90;;;;;;7343890;32;20461;-55
2023/06/20 04:15:59;;;;;;;9.32;5.07;;;19.50;99.90;;;;;;7345740;32;20107;-56
2023/06/20 04:20:04;;;;;;;6.45;5.53;;;19.50;99.90;;;;;;7344927;32;20111;-56
2023/06/20 04:24:06;;;;;;;8.30;5.80;;;19.50;99.90;;;;;;7343472;32;20150;-56
2023/06/20 04:28:08;;;;;;;6.97;5.00;;;19.50;99.90;;;;;;7343957;32;20206;-56
2023/06/20 04:32:09;;;;;;;6.37;5.28;;;19.60;99.90;;;;;;7347126;32;20540;-55
2023/06/20 04:36:13;;;;;;;5.60;4.57;;;19.60;99.90;;;;;;7351618;32;20175;-56
2023/06/20 04:40:14;;;;;;;6.35;5.32;;;19.60;99.90;;;;;;7349686;32;20448;-56
2023/06/20 04:44:16;;;;;;;5.37;4.72;;;19.70;99.90;;;;;;7347536;32;20336;-56
2023/06/20 04:48:18;;;;;;;7.68;5.07;;;19.70;99.90;;;;;;7347266;32;20198;-57
2023/06/20 04:52:20;;;;;;;6.45;4.78;;;19.70;99.90;;;;;;7347516;32;20118;-57
2023/06/20 04:56:22;;;;;;;7.20;4.95;;;19.80;99.90;;;;;;7348345;32;20123;-57
2023/06/20 05:00:25;;;;;;;6.12;5.43;;;19.70;99.90;;;;;;7352097;32;20168;-57
2023/06/20 05:04:27;;;;;;;7.57;5.57;;;19.70;99.90;;;;;;7349939;32;20194;-57
2023/06/20 05:08:29;;;;;;;7.28;4.78;;;19.70;99.90;;;;;;7348147;32;20449;-56
2023/06/20 05:12:32;;;;;;;7.05;4.97;;;19.80;99.90;;;;;;7347598;32;20131;-56
2023/06/20 05:16:34;;;;;;;6.45;4.95;;;19.90;99.90;;;;;;7350221;32;20115;-57
2023/06/20 05:20:35;;;;;;;5.97;4.57;;;19.90;99.90;;;;;;7346550;32;20107;-56
2023/06/20 05:24:37;;;;;;;6.85;5.10;;;19.90;99.90;;;;;;7342920;32;20347;-56
2023/06/20 05:28:39;;;;;;;7.60;4.90;;;20.00;99.90;;;;;;7341895;32;20186;-56
2023/06/20 05:32:41;;;;;;;5.47;4.80;;;20.00;99.90;;;;;;7344028;32;20130;-57
2023/06/20 05:36:43;;;;;;;6.07;4.62;;;20.00;99.90;;;;;;7347099;32;20096;-57
2023/06/20 05:40:45;;;;;;;6.22;5.10;;;20.00;99.90;;;;;;7339145;32;20217;-56
2023/06/20 05:44:47;;;;;;;7.97;6.18;;;19.90;99.90;;;;;;7345738;32;20139;-57
2023/06/20 05:48:49;;;;;;;7.55;5.93;;;19.90;99.90;;;;;;7344114;32;20167;-57
2023/06/20 05:52:51;;;;;;;6.90;5.78;;;20.00;99.90;;;;;;7340911;32;20909;-57
2023/06/20 05:56:55;;;;;;;7.43;6.12;;;20.10;99.90;;;;;;7341519;32;20191;-58
2023/06/20 06:00:58;;;;;;;7.82;5.93;;;20.20;99.90;;;;;;7344165;32;20115;-57
2023/06/20 06:05:00;;;;;;;9.30;5.70;;;20.30;99.90;;;;;;7344754;32;20126;-57
2023/06/20 06:09:03;;;;;;;7.75;6.00;;;20.50;99.90;;;;;;7339187;32;20275;-57
2023/06/20 06:13:04;;;;;;;6.07;5.22;;;20.50;99.90;;;;;;7336738;32;20212;-64
2023/06/20 06:17:06;;;;;;;10.30;6.03;;;20.70;99.90;;;;;;7344693;32;20309;-65
2023/06/20 06:21:08;;;;;;;5.90;5.28;;;20.90;99.90;;;;;;7339997;32;20253;-66
2023/06/20 06:25:10;;;;;;;6.65;5.10;;;21.20;99.90;;;;;;7345491;32;20615;-65
2023/06/20 06:29:12;;;;;;;8.25;4.87;;;21.30;99.90;;;;;;7343384;32;20251;-65
2023/06/20 06:33:14;;;;;;;5.72;5.12;;;21.40;99.90;;;;;;7343340;32;20135;-66
2023/06/20 06:37:15;;;;;;;7.05;4.90;;;21.60;99.90;;;;;;7342028;32;20994;-66
2023/06/20 06:41:18;;;;;;;8.82;5.70;;;21.70;99.90;;;;;;7343521;32;20199;-65
2023/06/20 06:45:20;;;;;;;6.53;5.45;;;21.90;99.90;;;;;;7342712;32;20133;-66
2023/06/20 06:49:22;;;;;;;9.80;5.55;;;22.10;99.90;;;;;;7347222;32;20526;-66
2023/06/20 06:53:24;;;;;;;6.87;5.25;;;22.40;99.90;;;;;;7343196;32;20111;-66
2023/06/20 06:57:26;;;;;;;7.28;5.20;;;22.70;99.90;;;;;;7347207;32;20344;-66
2023/06/20 07:01:28;;;;;;;5.78;4.80;;;22.90;99.90;;;;;;7344812;32;20251;-66
2023/06/20 07:05:30;;;;;;;5.97;4.43;;;23.20;99.90;;;;;;7347581;32;20099;-66
2023/06/20 07:09:32;;;;;;;6.20;4.62;;;23.40;99.90;;;;;;7339252;32;20127;-66
2023/06/20 07:13:34;;;;;;;6.80;4.90;;;23.70;99.90;;;;;;7346685;32;20265;-66
2023/06/20 07:17:36;;;;;;;4.85;4.18;;;23.90;99.90;;;;;;7339997;32;20578;-65
2023/06/20 07:21:38;;;;;;;5.45;4.40;;;24.10;99.90;;;;;;7339240;32;20380;-66
2023/06/20 07:25:39;;;;;;;5.95;3.97;;;24.10;99.90;;;;;;7342474;32;20145;-67
2023/06/20 07:29:41;;;;;;;6.07;3.70;;;24.10;99.90;;;;;;7339850;32;20115;-66
2023/06/20 07:33:43;;;;;;;6.87;4.10;;;24.20;99.90;;;;;;7343067;32;20902;-68
2023/06/20 07:37:45;;;;;;;6.45;4.55;;;24.40;99.90;;;;;;7346206;32;20160;-67
2023/06/20 07:41:46;;;;;;;4.55;4.00;;;24.40;99.90;;;;;;7344194;32;20115;-67
2023/06/20 07:45:48;;;;;;;5.95;4.20;;;24.50;99.90;;;;;;7343274;32;20361;-67
2023/06/20 07:49:50;;;;;;;3.83;3.53;;;24.60;99.90;;;;;;7345066;32;20131;-67
2023/06/20 07:53:52;;;;;;;6.15;4.05;;;24.60;99.90;;;;;;7344449;32;20191;-57
2023/06/20 07:57:53;;;;;;;5.80;4.15;;;24.80;99.90;;;;;;7340684;32;20108;-56
2023/06/20 08:01:55;;;;;;;5.55;3.90;;;25.00;99.90;;;;;;7339537;32;20222;-55
2023/06/20 08:05:57;;;;;;;6.25;4.28;;;25.30;99.90;;;;;;7345550;32;20924;-57
2023/06/20 08:10:00;;;;;;;6.28;3.75;;;25.30;99.90;;;;;;7351800;32;20133;-57
2023/06/20 08:14:01;;;;;;;5.20;4.00;;;25.40;99.90;;;;;;7343412;32;20273;-59
2023/06/20 08:18:03;;;;;;;7.07;3.67;;;25.70;99.90;;;;;;7350613;32;20107;-58
2023/06/20 08:22:05;;;;;;;3.87;3.28;;;25.70;99.90;;;;;;7358296;32;20124;-58
2023/06/20 08:26:07;;;;;;;7.25;3.67;;;25.90;99.90;;;;;;7351014;32;20122;-58
2023/06/20 08:30:11;;;;;;;6.78;3.50;;;26.10;99.90;;;;;;7353301;32;20153;-57
2023/06/20 08:34:13;;;;;;;4.78;3.53;;;26.30;99.90;;;;;;7353646;32;20197;-60
2023/06/20 08:38:15;;;;;;;4.25;3.83;;;26.60;99.90;;;;;;7348332;32;20099;-58
2023/06/20 08:42:16;;;;;;;4.93;3.35;;;26.90;99.90;;;;;;7353865;32;20449;-58
2023/06/20 08:46:19;;;;;;;5.80;3.47;;;27.30;99.90;;;;;;7354645;32;20680;-58
2023/06/20 08:50:21;;;;;;;4.85;3.83;;;27.50;99.90;;;;;;7351260;32;20270;-58
2023/06/20 08:54:25;;;;;;;6.50;3.72;;;27.40;99.90;;;;;;7342502;32;20111;-58
2023/06/20 08:58:26;;;;;;;6.03;3.20;;;27.80;99.90;;;;;;7345426;32;20206;-57
2023/06/20 09:02:28;;;;;;;3.65;3.35;;;28.10;99.90;;;;;;7347290;32;20524;-58
2023/06/20 09:06:37;;;;;;;6.50;3.78;;;28.40;99.90;;;;;;7344172;32;20103;-57
2023/06/20 09:10:40;;;;;;;7.20;3.55;;;28.60;99.90;;;;;;7340592;32;20419;-57
2023/06/20 09:14:42;;;;;;;5.32;3.20;;;28.70;99.90;;;;;;7344815;32;20107;-58
2023/06/20 09:18:49;;;;;;;4.82;3.12;;;29.10;99.90;;;;;;7343614;32;20242;-59
2023/06/20 09:22:51;;;;;;;4.80;3.65;;;29.30;99.90;;;;;;7344254;32;20259;-57
2023/06/20 09:26:53;;;;;;;3.40;2.80;;;29.30;99.90;;;;;;7346585;32;20155;-57
2023/06/20 09:30:55;;;;;;;5.45;3.22;;;29.40;99.90;;;;;;7348887;32;20186;-58
2023/06/20 09:35:02;;;;;;;6.05;3.15;;;29.50;99.90;;;;;;7342142;32;20421;-59
2023/06/20 09:39:12;;;;;;;7.28;3.12;;;29.50;99.90;;;;;;7346293;32;20287;-58
2023/06/20 09:43:14;;;;;;;7.78;3.03;;;29.60;99.90;;;;;;7344381;32;20490;-58
2023/06/20 09:47:16;;;;;;;3.92;3.00;;;30.40;99.90;;;;;;7345389;32;20103;-58
2023/06/20 09:51:18;;;;;;;3.80;3.17;;;30.10;99.90;;;;;;7345983;32;20182;-58
2023/06/20 09:55:23;;;;;;;5.97;3.20;;;30.40;99.90;;;;;;7339262;32;20753;-57
2023/06/20 09:59:26;;;;;;;4.30;3.58;;;30.40;99.90;;;;;;7347828;32;20115;-59
2023/06/20 10:03:29;;;;;;;3.35;2.97;;;30.20;99.90;;;;;;7349661;32;20156;-58
2023/06/20 10:07:32;;;;;;;4.05;3.12;;;30.80;99.90;;;;;;7344520;32;20226;-61
2023/06/20 10:11:36;;;;;;;8.32;3.60;;;30.80;99.90;;;;;;7347101;32;20112;-58
2023/06/20 10:15:39;;;;;;;6.62;2.72;;;30.60;99.90;;;;;;7345283;32;20099;-58
2023/06/20 10:19:50;;;;;;;6.28;3.55;;;30.90;99.90;;;;;;7346523;32;20297;-58
2023/06/20 10:23:52;;;;;;;3.65;3.33;;;31.10;99.90;;;;;;7342293;32;20106;-59
2023/06/20 10:28:09;;;;;;;5.40;3.50;;;31.70;99.90;;;;;;7341727;32;20107;-57
2023/06/20 10:32:13;;;;;;;3.40;3.05;;;31.10;98.30;;;;;;7346048;32;20174;-58
2023/06/20 10:36:16;;;;;;;3.90;3.45;;;31.30;99.70;;;;;;7341146;32;21014;-58
2023/06/20 10:40:29;;;;;;;3.50;3.20;;;31.60;98.50;;;;;;7344917;32;20186;-58
2023/06/20 10:44:31;;;;;;;4.05;3.37;;;31.60;97.80;;;;;;7342174;32;20123;-58
2023/06/20 10:48:33;;;;;;;5.20;3.55;;;31.70;98.10;;;;;;7343749;32;20144;-58
2023/06/20 10:52:36;;;;;;;5.97;3.30;;;31.80;98.60;;;;;;7340522;32;20099;-58
2023/06/20 10:56:38;;;;;;;6.47;3.62;;;32.20;98.50;;;;;;7346848;32;20199;-58
2023/06/20 11:00:40;;;;;;;4.03;3.53;;;32.00;97.70;;;;;;7343374;32;20226;-58
2023/06/20 11:04:42;;;;;;;6.32;3.85;;;31.60;96.90;;;;;;7342668;32;20099;-58
2023/06/20 11:08:45;;;;;;;4.90;3.90;;;31.30;99.40;;;;;;7345955;32;20134;-58
2023/06/20 11:12:47;;;;;;;4.30;3.90;;;31.20;98.80;;;;;;7344395;32;20174;-60
2023/06/20 11:16:50;;;;;;;5.07;3.80;;;31.80;99.00;;;;;;7318416;32;20232;-60
2023/06/20 11:20:52;;;;;;;5.62;3.72;;;31.80;97.50;;;;;;7344998;32;20163;-60
2023/06/20 11:24:54;;;;;;;6.10;3.20;;;32.00;97.60;;;;;;7343815;32;20123;-58
2023/06/20 11:29:03;;;;;;;3.45;2.97;;;32.30;96.80;;;;;;7340771;32;20544;-58
2023/06/20 11:33:16;;;;;;;3.90;3.50;;;32.30;95.90;;;;;;7334785;32;20178;-58
2023/06/20 11:37:18;;;;;;;4.82;3.50;;;32.00;95.20;;;;;;7335291;32;20174;-58
2023/06/20 11:41:31;;;;;;;3.62;3.22;;;32.10;96.20;;;;;;7341588;32;20138;-58
2023/06/20 11:45:34;;;;;;;4.05;3.65;;;31.60;95.00;;;;;;7351607;32;20225;-58
2023/06/20 11:49:39;;;;;;;3.83;3.40;;;31.50;95.50;;;;;;7351940;32;20645;-58
2023/06/20 11:53:41;;;;;;;4.00;3.60;;;31.70;95.70;;;;;;7352149;32;20299;-58
2023/06/20 11:57:43;;;;;;;5.90;3.58;;;31.90;96.90;;;;;;7358132;32;20650;-58
2023/06/20 12:01:45;;;;;;;3.80;3.50;;;32.40;94.30;;;;;;7352993;32;20129;-58
2023/06/20 12:05:47;;;;;;;6.57;3.50;;;32.60;93.20;;;;;;7350611;32;20185;-58
2023/06/20 12:09:49;;;;;;;3.45;3.15;;;31.60;92.70;;;;;;7352296;32;20119;-58
2023/06/20 12:13:52;;;;;;;5.80;3.15;;;32.00;94.70;;;;;;7348516;32;20373;-58
2023/06/20 12:17:54;;;;;;;3.40;2.67;;;32.50;92.00;;;;;;7352592;32;20730;-59
2023/06/20 12:21:55;;;;;;;3.87;2.78;;;32.80;91.40;;;;;;7347598;32;20133;-58
2023/06/20 12:26:00;;;;;;;3.10;2.80;;;33.10;88.50;;;;;;7350483;32;20182;-58
2023/06/20 12:30:02;;;;;;;2.78;2.58;;;33.40;88.00;;;;;;7347404;32;20108;-58
2023/06/20 12:34:04;;;;;;;4.62;2.92;;;33.70;91.40;;;;;;7347722;32;20124;-58
2023/06/20 12:38:06;;;;;;;4.18;2.62;;;33.30;87.20;;;;;;7343543;32;20214;-58
2023/06/20 12:42:08;;;;;;;5.37;2.60;;;33.10;88.60;;;;;;7346967;32;20096;-58
2023/06/20 12:46:10;;;;;;;3.12;2.83;;;32.60;89.00;;;;;;7346560;32;20268;-58
2023/06/20 12:50:12;;;;;;;3.55;2.55;;;31.80;90.00;;;;;;7349685;32;20282;-58
2023/06/20 12:54:13;;;;;;;5.00;3.47;;;31.60;93.10;;;;;;7356644;32;20138;-60
2023/06/20 12:58:15;;;;;;;3.17;2.60;;;31.80;92.40;;;;;;7346671;32;20107;-58
2023/06/20 13:02:19;;;;;;;4.80;3.12;;;31.30;91.50;;;;;;7348006;32;20175;-58
2023/06/20 13:06:21;;;;;;;3.72;3.10;;;31.20;92.70;;;;;;7348488;32;20135;-58
2023/06/20 13:10:23;;;;;;;6.05;2.97;;;31.10;92.40;;;;;;7354951;32;20143;-58
2023/06/20 13:14:25;;;;;;;4.20;2.87;;;31.80;92.20;;;;;;7354285;32;20125;-58
2023/06/20 13:18:27;;;;;;;3.17;2.87;;;32.40;91.40;;;;;;7351137;32;20156;-58
2023/06/20 13:22:28;;;;;;;3.60;2.58;;;32.90;90.40;;;;;;7352702;32;20521;-58
2023/06/20 13:26:30;;;;;;;3.37;2.87;;;32.90;89.10;;;;;;7350917;32;20740;-58
2023/06/20 13:30:32;;;;;;;3.00;2.70;;;32.80;86.90;;;;;;7349937;32;20159;-57
2023/06/20 13:34:34;;;;;;;3.90;3.00;;;33.10;87.60;;;;;;7345799;32;20162;-58
2023/06/20 13:38:35;;;;;;;5.15;2.75;;;32.90;89.50;;;;;;7338263;32;20190;-59
2023/06/20 13:42:44;;;;;;;3.30;3.00;;;32.50;86.60;;;;;;7339281;32;20317;-58
2023/06/20 13:46:46;;;;;;;4.40;2.95;;;31.80;90.10;;;;;;7340091;32;20710;-59
2023/06/20 13:50:48;;;;;;;3.42;2.65;;;31.50;91.00;;;;;;7340197;32;20198;-58
2023/06/20 13:54:49;;;;;;;3.67;3.12;;;31.50;92.20;;;;;;7336885;32;20194;-58
2023/06/20 13:58:51;;;;;;;4.25;2.95;;;31.70;90.30;;;;;;7331622;32;20287;-58
2023/06/20 14:02:53;;;;;;;4.85;2.85;;;31.10;89.60;;;;;;7341315;32;20470;-58
2023/06/20 14:06:55;;;;;;;3.35;2.92;;;31.20;90.90;;;;;;7331043;32;20221;-58
2023/06/20 14:10:57;;;;;;;3.78;2.90;;;31.60;93.10;;;;;;7339883;32;20270;-58
2023/06/20 14:14:59;;;;;;;4.28;3.20;;;31.50;91.00;;;;;;7340883;32;20667;-59
2023/06/20 14:19:01;;;;;;;4.93;3.33;;;31.30;90.50;;;;;;7338910;32;20607;-58
2023/06/20 14:23:03;;;;;;;3.55;3.25;;;30.80;90.90;;;;;;7333819;32;20568;-58
2023/06/20 14:27:05;;;;;;;3.80;3.42;;;30.50;91.60;;;;;;7341004;32;20194;-59
2023/06/20 14:31:07;;;;;;;4.20;3.60;;;30.20;92.80;;;;;;7333423;32;20258;-58
2023/06/20 14:35:08;;;;;;;5.90;3.83;;;29.90;93.20;;;;;;7334776;32;20258;-58
2023/06/20 14:39:10;;;;;;;4.95;3.58;;;29.70;93.80;;;;;;7339335;32;20111;-57
2023/06/20 14:43:13;;;;;;;4.12;3.20;;;29.40;94.30;;;;;;7342533;32;20614;-57
2023/06/20 14:47:14;;;;;;;3.87;3.17;;;29.30;95.40;;;;;;7333231;32;20199;-57
2023/06/20 14:51:16;;;;;;;4.37;3.78;;;29.60;94.90;;;;;;7330916;32;20676;-58
2023/06/20 14:55:18;;;;;;;3.92;3.62;;;30.20;93.30;;;;;;7316995;32;20203;-57
2023/06/20 14:59:23;;;;;;;3.97;3.30;;;30.10;94.30;;;;;;7326785;32;20350;-57
2023/06/20 15:03:26;;;;;;;4.03;3.65;;;30.00;95.30;;;;;;7320610;32;20255;-58
2023/06/20 15:07:28;;;;;;;7.28;3.50;;;29.80;93.80;;;;;;7328199;32;20167;-58
2023/06/20 15:11:29;;;;;;;5.18;3.47;;;29.80;95.30;;;;;;7341029;32;20318;-57
2023/06/20 15:15:32;;;;;;;5.93;3.60;;;29.70;95.10;;;;;;7324953;32;20194;-59
2023/06/20 15:19:34;;;;;;;3.80;3.50;;;29.60;94.60;;;;;;7337958;32;20563;-58
2023/06/20 15:23:37;;;;;;;5.28;3.92;;;29.40;95.80;;;;;;7335277;32;20231;-58
2023/06/20 15:27:39;;;;;;;4.20;3.80;;;29.40;94.80;;;;;;7350087;32;20529;-57
2023/06/20 15:31:40;;;;;;;5.37;3.70;;;29.30;95.30;;;;;;7348914;32;20181;-57
2023/06/20 15:35:44;;;;;;;3.78;3.40;;;29.20;96.00;;;;;;7339878;32;21064;-57
2023/06/20 15:39:46;;;;;;;3.53;3.20;;;29.20;95.20;;;;;;7346910;32;20131;-57
2023/06/20 15:43:48;;;;;;;3.90;3.50;;;29.00;96.40;;;;;;7348915;32;20116;-57
2023/06/20 15:47:49;;;;;;;4.85;3.33;;;28.90;98.60;;;;;;7347599;32;20206;-57
2023/06/20 15:51:51;;;;;;;3.33;2.87;;;28.90;99.10;;;;;;7349308;32;20282;-57
2023/06/20 15:55:53;;;;;;;3.50;3.20;;;28.90;99.90;;;;;;7336835;32;20199;-57
2023/06/20 15:59:55;;;;;;;7.12;3.40;;;28.80;99.90;;;;;;7337736;32;20503;-57
2023/06/20 16:03:57;;;;;;;4.70;3.60;;;28.80;99.90;;;;;;7333401;32;20294;-57
2023/06/20 16:07:58;;;;;;;4.80;3.33;;;28.90;99.90;;;;;;7340619;32;20190;-57
2023/06/20 16:12:00;;;;;;;5.30;3.08;;;28.90;99.90;;;;;;7336732;32;20253;-58
2023/06/20 16:16:02;;;;;;;5.65;3.37;;;28.90;99.90;;;;;;7340477;32;20170;-57
2023/06/20 16:20:06;;;;;;;4.62;2.97;;;28.90;99.80;;;;;;7336689;32;20154;-58
2023/06/20 16:24:08;;;;;;;4.45;2.85;;;28.80;97.40;;;;;;7340078;32;20146;-58
2023/06/20 16:28:10;;;;;;;3.78;3.30;;;28.70;96.00;;;;;;7346383;32;20202;-57
2023/06/20 16:32:12;;;;;;;4.70;2.95;;;28.70;95.80;;;;;;7347278;32;20119;-57
2023/06/20 16:36:14;;;;;;;4.68;3.20;;;28.50;95.70;;;;;;7348299;32;20177;-57
2023/06/20 16:40:16;;;;;;;4.37;3.00;;;28.30;95.70;;;;;;7348775;32;20104;-58
2023/06/20 16:44:17;;;;;;;6.97;3.50;;;28.40;96.10;;;;;;7353477;32;20108;-58
2023/06/20 16:48:20;;;;;;;4.87;3.50;;;28.30;96.50;;;;;;7349645;32;20099;-58
2023/06/20 16:52:21;;;;;;;4.37;3.83;;;28.10;97.40;;;;;;7349118;32;20164;-56
2023/06/20 16:56:23;;;;;;;4.93;3.47;;;28.20;96.10;;;;;;7352322;32;20214;-58
2023/06/20 17:00:25;;;;;;;3.92;3.33;;;28.20;96.40;;;;;;7348970;32;20115;-58
2023/06/20 17:04:27;;;;;;;7.32;3.50;;;28.20;96.70;;;;;;7350942;32;20214;-58
2023/06/20 17:08:29;;;;;;;4.10;3.08;;;28.20;96.50;;;;;;7342806;32;20126;-57
2023/06/20 17:12:31;;;;;;;7.10;3.22;;;28.10;95.70;;;;;;7352736;32;20100;-57
2023/06/20 17:16:33;;;;;;;4.50;2.87;;;28.10;95.90;;;;;;7354120;32;20107;-59
2023/06/20 17:20:35;;;;;;;3.87;3.05;;;28.00;96.20;;;;;;7352547;32;20115;-57
2023/06/20 17:24:39;;;;;;;5.32;3.20;;;28.00;95.90;;;;;;7349928;32;20238;-56
2023/06/20 17:28:41;;;;;;;6.28;3.03;;;27.90;96.00;;;;;;7350949;32;20142;-57
2023/06/20 17:32:43;;;;;;;6.55;3.28;;;27.90;96.10;;;;;;7343435;32;20246;-57
2023/06/20 17:36:46;;;;;;;6.78;3.67;;;27.90;96.40;;;;;;7340566;32;20542;-59
2023/06/20 17:40:48;;;;;;;7.90;3.70;;;27.90;96.50;;;;;;7345149;32;20257;-58
2023/06/20 17:44:50;;;;;;;6.40;3.50;;;27.90;96.40;;;;;;7347697;32;20569;-57
2023/06/20 17:48:51;;;;;;;5.00;3.90;;;27.80;96.90;;;;;;7348869;32;20142;-57
2023/06/20 17:52:53;;;;;;;6.78;3.78;;;27.80;97.00;;;;;;7344751;32;20254;-57
2023/06/20 17:56:55;;;;;;;5.70;3.83;;;27.80;97.60;;;;;;7338530;32;21203;-57
2023/06/20 18:00:57;;;;;;;4.75;3.90;;;27.80;97.50;;;;;;7339275;32;20556;-57
2023/06/20 18:04:59;;;;;;;6.00;3.80;;;27.70;97.60;;;;;;7346118;32;20186;-57
2023/06/20 18:09:00;;;;;;;4.18;3.75;;;27.70;98.10;;;;;;7339231;32;20269;-57
2023/06/20 18:13:03;;;;;;;7.95;4.15;;;27.70;98.20;;;;;;7339749;32;20193;-58
2023/06/20 18:17:05;;;;;;;8.10;3.87;;;27.70;98.20;;;;;;7336403;32;20538;-57
2023/06/20 18:21:10;;;;;;;5.80;3.80;;;27.50;98.40;;;;;;7342742;32;20201;-57
2023/06/20 18:25:12;;;;;;;4.55;3.75;;;27.50;98.70;;;;;;7339396;32;20194;-57
2023/06/20 18:29:14;;;;;;;5.82;3.85;;;27.50;99.00;;;;;;7342528;32;20204;-57
2023/06/20 18:33:16;;;;;;;6.93;3.92;;;27.30;99.50;;;;;;7340689;32;20178;-57
2023/06/20 18:37:18;;;;;;;5.85;3.70;;;27.20;99.90;;;;;;7343082;32;20186;-58
2023/06/20 18:41:19;;;;;;;7.07;4.30;;;27.20;99.90;;;;;;7333524;32;20280;-58
2023/06/20 18:45:21;;;;;;;6.78;3.83;;;27.20;99.90;;;;;;7338830;32;20314;-60
2023/06/20 18:49:23;;;;;;;7.47;4.05;;;27.10;99.90;;;;;;7350006;32;20179;-57
2023/06/20 18:53:25;;;;;;;8.57;3.62;;;27.00;99.90;;;;;;7348264;32;20107;-57
2023/06/20 18:57:27;;;;;;;12.70;4.25;;;26.90;99.90;;;;;;7348077;32;20210;-57
2023/06/20 19:01:28;;;;;;;10.00;3.87;;;26.60;99.90;;;;;;7343661;32;20331;-57
2023/06/20 19:05:30;;;;;;;9.35;3.60;;;26.30;99.90;;;;;;7350306;32;20129;-58
2023/06/20 19:09:39;;;;;;;9.85;3.87;;;26.10;99.90;;;;;;7347614;32;20103;-57
2023/06/20 19:13:45;;;;;;;6.45;3.17;;;25.70;99.90;;;;;;7343940;32;20703;-57
2023/06/20 19:17:47;;;;;;;6.27;3.30;;;25.30;99.90;;;;;;7346295;32;20115;-58
2023/06/20 19:21:49;;;;;;;6.75;3.30;;;24.90;99.90;;;;;;7347171;32;20264;-57
2023/06/20 19:25:50;;;;;;;5.35;3.37;;;24.70;99.90;;;;;;7348797;32;20186;-57
2023/06/20 19:29:52;;;;;;;3.70;3.25;;;24.50;99.90;;;;;;7345912;32;20131;-57
2023/06/20 19:33:54;;;;;;;5.12;3.40;;;24.30;99.90;;;;;;7345900;32;20114;-58
2023/06/20 19:37:56;;;;;;;4.93;3.20;;;24.20;99.90;;;;;;7348351;32;20111;-57
2023/06/20 19:41:58;;;;;;;6.47;3.20;;;24.10;99.90;;;;;;7349476;32;20533;-59
2023/06/20 19:45:59;;;;;;;6.10;3.40;;;24.00;99.90;;;;;;7348008;32;20490;-58
2023/06/20 19:50:01;;;;;;;5.55;3.28;;;23.80;99.90;;;;;;7348128;32;20634;-58
2023/06/20 19:54:04;;;;;;;4.25;3.25;;;23.60;99.90;;;;;;7348888;32;20148;-58
2023/06/20 19:58:07;;;;;;;5.40;3.67;;;23.50;99.90;;;;;;7347557;32;20596;-57
2023/06/20 20:02:09;;;;;;;6.45;3.20;;;23.50;99.90;;;;;;7346923;32;20632;-57
2023/06/20 20:06:11;;;;;;;5.25;3.10;;;23.40;99.90;;;;;;7353627;32;20226;-56
2023/06/20 20:10:12;;;;;;;5.45;3.20;;;23.30;99.90;;;;;;7351393;32;20267;-57
2023/06/20 20:14:14;;;;;;;6.53;3.60;;;23.20;99.90;;;;;;7350926;32;20146;-57
2023/06/20 20:18:16;;;;;;;3.90;3.40;;;23.20;99.90;;;;;;7352783;32;20430;-56
2023/06/20 20:22:18;;;;;;;6.62;3.60;;;23.20;99.90;;;;;;7354329;32;20104;-55
2023/06/20 20:26:21;;;;;;;6.28;3.70;;;23.10;99.90;;;;;;7355126;32;20241;-56
2023/06/20 20:30:23;;;;;;;4.30;3.53;;;23.10;99.90;;;;;;7342414;32;20380;-55
2023/06/20 20:34:25;;;;;;;5.43;3.75;;;23.00;99.90;;;;;;7341596;32;20303;-55
2023/06/20 20:38:27;;;;;;;6.68;4.15;;;22.80;99.90;;;;;;7338588;32;20230;-56
2023/06/20 20:42:29;;;;;;;7.70;4.10;;;22.80;99.90;;;;;;7335548;32;20270;-55
2023/06/20 20:46:32;;;;;;;6.10;3.58;;;22.70;99.90;;;;;;7337410;32;20284;-55
2023/06/20 20:50:34;;;;;;;6.53;3.85;;;22.60;99.90;;;;;;7341401;32;20209;-57
2023/06/20 20:54:36;;;;;;;5.50;4.22;;;22.50;99.90;;;;;;7341199;32;20835;-55
2023/06/20 20:58:38;;;;;;;5.40;4.32;;;22.60;99.90;;;;;;7339853;32;20193;-57
2023/06/20 21:02:39;;;;;;;6.22;4.47;;;22.50;99.90;;;;;;7340436;32;20615;-56